D/T METAR WX W/SPE G/SPE TEMP DEWP FEEL
31/01/23 13:20 EGDR 311320Z 29017KT 9999 HZ FEW010 SCT025 10/05 Q1029 TEMPO SCT022 RMK BLU TEMPO WHT HZ 19.6mph 10°C 5°C 9.3°C
31/01/23 12:50 EGDR 311250Z 28015KT 9999 FEW010 FEW022 BKN024 10/06 Q1029 NOSIG RMK WHT WHT 17.3mph 10°C 6°C 9.6°C
31/01/23 12:20 EGDR 311220Z 28016KT 9999 FEW010 SCT015 BKN020 11/07 Q1029 TEMPO 3000 -RADZ SCT004 RMK WHT TEMPO YLO2 18.4mph 11°C 7°C 11.0°C
31/01/23 07:20 EGDR 310720Z 25013KT 9999 FEW014 BKN040 10/08 Q1028 TEMPO 2000 -DZ BR BKN003 RMK BLU TEMPO YLO2 15.0mph 10°C 8°C 10.4°C
30/01/23 21:50 EGDR 302150Z AUTO 27004KT 9999 OVC024/// 07/03 Q1030 4.6mph 7°C 3°C 5.7°C
30/01/23 12:50 EGDR 301250Z AUTO 32009KT 9999 OVC027/// 08/02 Q1029 10.4mph 8°C 2°C 6.4°C
30/01/23 10:50 EGDR 301050Z AUTO 32008KT 9999 OVC029/// 08/03 Q1030 9.2mph 8°C 3°C 6.7°C
30/01/23 10:20 EGDR 301020Z AUTO 32007KT 9999 OVC028/// 08/04 Q1029 8.1mph 8°C 4°C 7.0°C
30/01/23 09:50 EGDR 300950Z AUTO 31006KT 9999 OVC028/// 08/04 Q1029 6.9mph 8°C 4°C 7.0°C
30/01/23 07:50 EGDR 300750Z AUTO 33004KT 9999 OVC032/// 08/05 Q1028 4.6mph 8°C 5°C 7.3°C
09/01/23 06:20 EGDR 090620Z AUTO 26016KT 9999 // FEW019/// 08/04 Q1002 18.4mph 8°C 4°C 7.0°C
09/01/23 05:50 EGDR 090550Z AUTO 26016KT 9999 // FEW032/// SCT049/// 08/04 Q1001 18.4mph 8°C 4°C 7.0°C
09/01/23 05:20 EGDR 090520Z AUTO 26015KT 9999 // FEW030/// 08/04 Q1001 17.3mph 8°C 4°C 7.0°C
09/01/23 04:50 EGDR 090450Z AUTO 26015KT 9999 // FEW030/// SCT046/// 08/04 Q1000 17.3mph 8°C 4°C 7.0°C
09/01/23 04:20 EGDR 090420Z AUTO 27014KT 9999 FEW078/// SCT097/// 07/03 Q1000 16.1mph 7°C 3°C 5.7°C
09/01/23 03:50 EGDR 090350Z AUTO 26013KT 9999 FEW028/// 07/04 Q0999 15.0mph 7°C 4°C 6.0°C
09/01/23 03:20 EGDR 090320Z AUTO 26015KT 9999 // FEW049/// 07/03 Q0999 17.3mph 7°C 3°C 5.7°C
09/01/23 02:50 EGDR 090250Z AUTO 27011KT 9999 // FEW085/// 06/04 Q0999 12.7mph 6°C 4°C 5.0°C
09/01/23 02:20 EGDR 090220Z AUTO 28018G29KT 9999 // SCT021/// 06/03 Q0998 20.7mph 33.4mph 6°C 3°C 4.7°C
09/01/23 01:20 EGDR 090120Z AUTO 27018KT 9999 -RA BKN020/// SCT084/// 06/03 Q0997 -RA 20.7mph 6°C 3°C 4.7°C
09/01/23 00:50 EGDR 090050Z AUTO 27011KT 9999 // FEW028/// 07/04 Q0997 12.7mph 7°C 4°C 6.0°C
09/01/23 00:20 EGDR 090020Z AUTO 28017KT 9999 // FEW021/// SCT042/// 07/04 Q0996 19.6mph 7°C 4°C 6.0°C
08/01/23 23:50 EGDR 082350Z AUTO 27014G24KT 9999 // OVC024/// 08/04 Q0996 16.1mph 27.6mph 8°C 4°C 7.0°C
08/01/23 23:20 EGDR 082320Z AUTO 26016KT 9999 // BKN030/// 08/04 Q0995 18.4mph 8°C 4°C 7.0°C
08/01/23 22:50 EGDR 082250Z AUTO 26014KT 9999 // FEW023/// 07/05 Q0995 16.1mph 7°C 5°C 6.3°C
08/01/23 22:20 EGDR 082220Z AUTO 28014KT 9999 -RA BKN017/// SCT052/// 07/05 Q0994 -RA 16.1mph 7°C 5°C 6.3°C
08/01/23 21:50 EGDR 082150Z AUTO 27017G29KT 9999 -RA FEW019/// BKN029/// 07/05 Q0994 -RA 19.6mph 33.4mph 7°C 5°C 6.3°C
08/01/23 20:20 EGDR 082020Z AUTO 27014KT 9999 // FEW022/// SCT100/// 08/05 Q0992 16.1mph 8°C 5°C 7.3°C
08/01/23 19:20 EGDR 081920Z AUTO 26018G29KT 8000 // OVC021/// 09/06 Q0991 20.7mph 33.4mph 9°C 6°C 8.6°C
08/01/23 18:50 EGDR 081850Z AUTO 26018G29KT 9999 -RA OVC018/// 09/07 Q0990 -RA 20.7mph 33.4mph 9°C 7°C 9.0°C
08/01/23 18:20 EGDR 081820Z AUTO 25021KT 9999 // OVC017/// 09/06 Q0989 24.2mph 9°C 6°C 8.6°C
08/01/23 17:50 EGDR 081750Z AUTO 25024G37KT 9999 // OVC016/// 09/06 Q0989 27.6mph 42.6mph 9°C 6°C 8.6°C
08/01/23 17:20 EGDR 081720Z AUTO 23020KT 9999 // OVC014/// 09/07 Q0988 23.0mph 9°C 7°C 9.0°C
08/01/23 16:50 EGDR 081650Z AUTO 23021G33KT 1900 -RA OVC019/// 08/06 Q0989 -RA 24.2mph 38.0mph 8°C 6°C 7.6°C
08/01/23 16:20 EGDR 081620Z AUTO 23021G32KT 9999 -RA FEW014/// BKN030/// 08/05 Q0989 -RA 24.2mph 36.8mph 8°C 5°C 7.3°C
08/01/23 15:50 EGDR 081550Z AUTO 23017KT 9999 // FEW027/// SCT041/// 08/04 Q0990 19.6mph 8°C 4°C 7.0°C
08/01/23 15:20 EGDR 081520Z AUTO 23016KT 9999 // FEW029/// 09/05 Q0990 18.4mph 9°C 5°C 8.3°C
08/01/23 14:20 EGDR 081420Z AUTO 23017KT 9999 // OVC025/// 09/04 Q0990 19.6mph 9°C 4°C 8.0°C
08/01/23 13:50 EGDR 081350Z AUTO 23017KT 9999 // SCT027/// 09/03 Q0990 19.6mph 9°C 3°C 7.7°C
08/01/23 13:20 EGDR 081320Z AUTO 24019KT 9999 // OVC025/// 08/03 Q0990 21.9mph 8°C 3°C 6.7°C
08/01/23 12:50 EGDR 081250Z AUTO 24016G27KT 9999 OVC023/// 09/04 Q0990 18.4mph 31.1mph 9°C 4°C 8.0°C
08/01/23 12:20 EGDR 081220Z AUTO 25016KT 9999 // FEW021/// 08/04 Q0990 18.4mph 8°C 4°C 7.0°C
08/01/23 11:50 EGDR 081150Z AUTO 25012KT 9999 // FEW022/// 07/05 Q0990 13.8mph 7°C 5°C 6.3°C
08/01/23 11:20 EGDR 081120Z AUTO 25011KT 9999 -RA FEW012/// OVC028/// 06/05 Q0990 -RA 12.7mph 6°C 5°C 5.3°C
08/01/23 10:50 EGDR 081050Z AUTO 24015KT 3100 RA OVC012/// 07/06 Q0990 RA 17.3mph 7°C 6°C 6.6°C
08/01/23 10:20 EGDR 081020Z AUTO 23014KT 9999 // FEW020/// OVC030/// 09/05 Q0990 16.1mph 9°C 5°C 8.3°C
08/01/23 09:50 EGDR 080950Z AUTO 23013KT 9999 // FEW051/// 08/05 Q0990 15.0mph 8°C 5°C 7.3°C
08/01/23 09:20 EGDR 080920Z AUTO 24012KT 9999 -RA BKN027/// SCT100/// 07/05 Q0990 -RA 13.8mph 7°C 5°C 6.3°C
08/01/23 08:50 EGDR 080850Z AUTO 25020KT 3800 // OVC011/// 07/05 Q0991 23.0mph 7°C 5°C 6.3°C
08/01/23 08:20 EGDR 080820Z AUTO 23017G27KT 9999 +RA FEW013/// OVC020/// 08/06 Q0990 +RA 19.6mph 31.1mph 8°C 6°C 7.6°C
08/01/23 07:50 EGDR 080750Z AUTO 22016G29KT 9999 // SCT020/// SCT067/// 09/05 Q0990 18.4mph 33.4mph 9°C 5°C 8.3°C
08/01/23 07:20 EGDR 080720Z AUTO 20012KT 9999 // FEW045/// OVC053/// 09/06 Q0991 13.8mph 9°C 6°C 8.6°C
08/01/23 06:50 EGDR 080650Z AUTO 23015G25KT 9999 RA OVC020/// 08/06 Q0991 RA 17.3mph 28.8mph 8°C 6°C 7.6°C
08/01/23 06:20 EGDR 080620Z AUTO 21013KT 9999 BKN022/// OVC042/// 10/06 Q0991 15.0mph 10°C 6°C 9.6°C
08/01/23 05:50 EGDR 080550Z AUTO 20013KT 9999 BKN023/// 10/06 Q0992 15.0mph 10°C 6°C 9.6°C
08/01/23 05:20 EGDR 080520Z AUTO 21012KT 9999 SCT020/// 09/06 Q0993 13.8mph 9°C 6°C 8.6°C
08/01/23 04:50 EGDR 080450Z AUTO 22012KT 9999 // SCT021/// 09/06 Q0993 13.8mph 9°C 6°C 8.6°C
08/01/23 04:20 EGDR 080420Z AUTO 22012KT 9999 // NCD 09/06 Q0993 13.8mph 9°C 6°C 8.6°C
08/01/23 03:50 EGDR 080350Z AUTO 23015KT 9999 RA BKN020/// SCT051/// 08/06 Q0994 RA 17.3mph 8°C 6°C 7.6°C
08/01/23 03:20 EGDR 080320Z AUTO 22015KT 9999 SCT020/// 10/06 Q0994 17.3mph 10°C 6°C 9.6°C
08/01/23 02:50 EGDR 080250Z AUTO 22015G25KT 9999 // BKN022/// 09/05 Q0994 17.3mph 28.8mph 9°C 5°C 8.3°C
08/01/23 02:20 EGDR 080220Z AUTO 23017KT 9999 // OVC019/// 09/06 Q0994 19.6mph 9°C 6°C 8.6°C
08/01/23 01:50 EGDR 080150Z AUTO 22013KT 9999 // SCT021/// 09/06 Q0995 15.0mph 9°C 6°C 8.6°C
08/01/23 01:20 EGDR 080120Z AUTO 23015KT 9999 // FEW038/// BKN048/// 09/05 Q0995 17.3mph 9°C 5°C 8.3°C
08/01/23 00:20 EGDR 080020Z AUTO 23013KT 9999 // SCT023/// SCT093/// 08/06 Q0995 15.0mph 8°C 6°C 7.6°C
07/01/23 23:50 EGDR 072350Z AUTO 22016G31KT 2200 // FEW017/// SCT067/// 09/05 Q0996 18.4mph 35.7mph 9°C 5°C 8.3°C
07/01/23 23:20 EGDR 072320Z AUTO 21011G23KT 9999 -RA FEW027/// BKN049/// 09/06 Q0995 -RA 12.7mph 26.5mph 9°C 6°C 8.6°C
07/01/23 22:50 EGDR 072250Z AUTO 22013KT 9999 // BKN053/// BKN091/// 09/06 Q0995 15.0mph 9°C 6°C 8.6°C
07/01/23 22:20 EGDR 072220Z AUTO 22015KT 9999 // FEW058/// 10/06 Q0996 17.3mph 10°C 6°C 9.6°C
07/01/23 21:50 EGDR 072150Z AUTO 23021G31KT 9999 // FEW019/// BKN024/// 09/06 Q0995 24.2mph 35.7mph 9°C 6°C 8.6°C
07/01/23 21:20 EGDR 072120Z AUTO 22015G25KT 9999 OVC023/// 10/06 Q0995 17.3mph 28.8mph 10°C 6°C 9.6°C
07/01/23 20:50 EGDR 072050Z AUTO 22017G30KT 9999 BKN023/// 10/06 Q0995 19.6mph 34.5mph 10°C 6°C 9.6°C
07/01/23 20:20 EGDR 072020Z AUTO 22016G26KT 9999 BKN023/// 10/06 Q0996 18.4mph 29.9mph 10°C 6°C 9.6°C
07/01/23 19:50 EGDR 071950Z AUTO 22015G25KT 9999 BKN023/// 10/07 Q0996 17.3mph 28.8mph 10°C 7°C 10.0°C
07/01/23 19:20 EGDR 071920Z AUTO 22019KT 9999 // SCT024/// 10/06 Q0996 21.9mph 10°C 6°C 9.6°C
07/01/23 18:50 EGDR 071850Z AUTO 22015G29KT 9999 // OVC023/// 10/06 Q0995 17.3mph 33.4mph 10°C 6°C 9.6°C
07/01/23 18:20 EGDR 071820Z AUTO 22017G27KT 9999 OVC022/// 10/06 Q0995 19.6mph 31.1mph 10°C 6°C 9.6°C
07/01/23 17:50 EGDR 071750Z AUTO 22018G29KT 9999 FEW023/// 10/06 Q0995 20.7mph 33.4mph 10°C 6°C 9.6°C
07/01/23 17:20 EGDR 071720Z AUTO 23018KT 9999 OVC024/// 10/06 Q0995 20.7mph 10°C 6°C 9.6°C
07/01/23 16:50 EGDR 071650Z AUTO 22018KT 9999 OVC024/// 10/06 Q0995 20.7mph 10°C 6°C 9.6°C
07/01/23 16:20 EGDR 071620Z AUTO 23020KT 9999 FEW026/// 10/05 Q0995 23.0mph 10°C 5°C 9.3°C
07/01/23 15:50 EGDR 071550Z AUTO 23019G29KT 9999 // SCT027/// 10/04 Q0995 21.9mph 33.4mph 10°C 4°C 9.0°C
07/01/23 15:20 EGDR 071520Z AUTO 23020KT 9999 // BKN025/// 09/05 Q0995 23.0mph 9°C 5°C 8.3°C
07/01/23 14:50 EGDR 071450Z AUTO 23019KT 9999 // FEW025/// BKN044/// 09/05 Q0994 21.9mph 9°C 5°C 8.3°C
07/01/23 14:20 EGDR 071420Z AUTO 23020G30KT 9999 // BKN024/// 10/05 Q0994 23.0mph 34.5mph 10°C 5°C 9.3°C
07/01/23 13:50 EGDR 071350Z AUTO 21014G26KT 9999 // FEW027/// BKN033/// 09/06 Q0994 16.1mph 29.9mph 9°C 6°C 8.6°C
07/01/23 12:50 EGDR 071250Z AUTO 23016KT 9999 RA SCT008/// BKN033/// BKN064/// 08/07 Q0994 RA 18.4mph 8°C 7°C 8.0°C
07/01/23 12:20 EGDR 071220Z AUTO 21016G37KT 1700 -RA SCT021/// BKN037/// 08/05 Q0995 -RA 18.4mph 42.6mph 8°C 5°C 7.3°C
07/01/23 11:50 EGDR 071150Z AUTO 20012KT 9999 // FEW031/// OVC043/// 10/08 Q0994 13.8mph 10°C 8°C 10.4°C
07/01/23 11:20 EGDR 071120Z AUTO 22014KT 9999 +RA FEW017/// OVC027/// 09/06 Q0995 +RA 16.1mph 9°C 6°C 8.6°C
07/01/23 10:50 EGDR 071050Z AUTO 20011KT 9999 FEW032/// 11/08 Q0995 12.7mph 11°C 8°C 11.4°C
07/01/23 10:20 EGDR 071020Z AUTO 20012G24KT 9999 OVC017/// 11/08 Q0995 13.8mph 27.6mph 11°C 8°C 11.4°C
07/01/23 09:50 EGDR 070950Z 20016G27KT 9999 FEW015 SCT040 11/09 Q0995 TEMPO 4000 SHRAGS SCT004 BKN015CB RMK BLU TEMPO YLO2 18.4mph 31.1mph 11°C 9°C 11.8°C
07/01/23 09:20 EGDR 070920Z 19013KT 9999 FEW015 SCT050 10/09 Q0995 TEMPO 4000 SHRAGS SCT004 BKN015CB RMK BLU TEMPO YLO2 15.0mph 10°C 9°C 10.8°C
07/01/23 08:50 EGDR 070850Z 20013G23KT 9999 FEW012 SCT015 BKN025 10/09 Q0996 TEMPO 4000 SHRAGS SCT004 BKN015CB RMK WHT TEMPO YLO2 15.0mph 26.5mph 10°C 9°C 10.8°C
07/01/23 08:20 EGDR 070820Z 19011KT 9999 FEW015 SCT030 10/08 Q0996 TEMPO 4000 SHRAGS SCT004 BKN015CB RMK BLU TEMPO YLO2 12.7mph 10°C 8°C 10.4°C